sensor_id;sensor_type;location;lat;lon;timestamp;pressure;altitude;pressure_sealevel;temperature;humidity
41044;BME280;51680;49.806;18.774;2023-04-28T00:02:26;97804.63;;;5.14;62.15
41044;BME280;51680;49.806;18.774;2023-04-28T00:05:28;97797.00;;;5.11;62.21
41044;BME280;51680;49.806;18.774;2023-04-28T00:08:30;97802.03;;;5.14;61.55
41044;BME280;51680;49.806;18.774;2023-04-28T00:11:31;97797.72;;;5.14;61.85
41044;BME280;51680;49.806;18.774;2023-04-28T00:14:33;97799.41;;;5.15;61.73
41044;BME280;51680;49.806;18.774;2023-04-28T00:17:36;97794.34;;;5.12;62.03
41044;BME280;51680;49.806;18.774;2023-04-28T00:20:56;97796.13;;;5.10;61.86
41044;BME280;51680;49.806;18.774;2023-04-28T00:23:58;97786.34;;;5.18;61.63
41044;BME280;51680;49.806;18.774;2023-04-28T00:27:00;97791.94;;;5.31;61.00
41044;BME280;51680;49.806;18.774;2023-04-28T00:30:03;97791.31;;;5.47;60.68
41044;BME280;51680;49.806;18.774;2023-04-28T00:33:06;97789.72;;;5.66;60.14
41044;BME280;51680;49.806;18.774;2023-04-28T00:36:08;97792.53;;;5.60;60.00
41044;BME280;51680;49.806;18.774;2023-04-28T00:39:10;97795.84;;;5.64;59.80
41044;BME280;51680;49.806;18.774;2023-04-28T00:42:12;97781.94;;;5.66;59.84
41044;BME280;51680;49.806;18.774;2023-04-28T00:45:14;97786.88;;;5.72;59.17
41044;BME280;51680;49.806;18.774;2023-04-28T00:48:17;97793.00;;;5.70;59.51
41044;BME280;51680;49.806;18.774;2023-04-28T00:51:19;97792.91;;;5.73;58.83
41044;BME280;51680;49.806;18.774;2023-04-28T00:54:21;97798.31;;;5.67;59.43
41044;BME280;51680;49.806;18.774;2023-04-28T00:57:23;97802.81;;;5.62;59.55
41044;BME280;51680;49.806;18.774;2023-04-28T01:00:25;97800.31;;;5.60;59.68
41044;BME280;51680;49.806;18.774;2023-04-28T01:03:28;97793.50;;;5.58;59.94
41044;BME280;51680;49.806;18.774;2023-04-28T01:06:30;97799.22;;;5.66;59.23
41044;BME280;51680;49.806;18.774;2023-04-28T01:09:34;97793.00;;;5.70;59.19
41044;BME280;51680;49.806;18.774;2023-04-28T01:12:36;97800.69;;;5.73;59.20
41044;BME280;51680;49.806;18.774;2023-04-28T01:15:38;97800.53;;;5.76;58.55
41044;BME280;51680;49.806;18.774;2023-04-28T01:18:46;97804.94;;;5.74;59.56
41044;BME280;51680;49.806;18.774;2023-04-28T01:21:48;97801.50;;;5.73;59.10
41044;BME280;51680;49.806;18.774;2023-04-28T01:24:55;97805.00;;;5.72;59.16
41044;BME280;51680;49.806;18.774;2023-04-28T01:27:58;97801.84;;;5.64;59.44
41044;BME280;51680;49.806;18.774;2023-04-28T01:31:01;97796.25;;;5.53;59.50
41044;BME280;51680;49.806;18.774;2023-04-28T01:34:03;97798.06;;;5.51;59.37
41044;BME280;51680;49.806;18.774;2023-04-28T01:37:05;97788.03;;;5.42;59.87
41044;BME280;51680;49.806;18.774;2023-04-28T01:40:09;97789.06;;;5.38;60.31
41044;BME280;51680;49.806;18.774;2023-04-28T01:43:11;97794.38;;;5.34;60.22
41044;BME280;51680;49.806;18.774;2023-04-28T01:46:13;97799.69;;;5.31;60.27
41044;BME280;51680;49.806;18.774;2023-04-28T01:49:15;97792.25;;;5.22;60.36
41044;BME280;51680;49.806;18.774;2023-04-28T01:52:16;97787.09;;;5.22;60.83
41044;BME280;51680;49.806;18.774;2023-04-28T01:55:20;97792.31;;;5.20;60.90
41044;BME280;51680;49.806;18.774;2023-04-28T01:58:23;97788.72;;;5.24;60.57
41044;BME280;51680;49.806;18.774;2023-04-28T02:01:25;97794.50;;;5.31;59.80
41044;BME280;51680;49.806;18.774;2023-04-28T02:04:27;97790.06;;;5.34;60.22
41044;BME280;51680;49.806;18.774;2023-04-28T02:07:29;97791.66;;;5.38;59.67
41044;BME280;51680;49.806;18.774;2023-04-28T02:10:32;97787.81;;;5.48;59.19
41044;BME280;51680;49.806;18.774;2023-04-28T02:13:33;97789.50;;;5.49;59.13
41044;BME280;51680;49.806;18.774;2023-04-28T02:16:36;97791.31;;;5.47;59.16
41044;BME280;51680;49.806;18.774;2023-04-28T02:19:38;97787.91;;;5.45;59.22
41044;BME280;51680;49.806;18.774;2023-04-28T02:22:39;97787.25;;;5.40;59.33
41044;BME280;51680;49.806;18.774;2023-04-28T02:25:43;97785.47;;;5.42;59.64
41044;BME280;51680;49.806;18.774;2023-04-28T02:28:46;97787.38;;;5.37;59.92
41044;BME280;51680;49.806;18.774;2023-04-28T02:31:49;97787.53;;;5.33;60.20
41044;BME280;51680;49.806;18.774;2023-04-28T02:34:52;97780.78;;;5.29;60.28
41044;BME280;51680;49.806;18.774;2023-04-28T02:37:54;97776.69;;;5.23;60.43
41044;BME280;51680;49.806;18.774;2023-04-28T02:40:58;97774.78;;;5.28;60.09
41044;BME280;51680;49.806;18.774;2023-04-28T02:44:00;97781.13;;;5.20;61.43
41044;BME280;51680;49.806;18.774;2023-04-28T02:47:01;97784.41;;;5.25;59.53
41044;BME280;51680;49.806;18.774;2023-04-28T02:50:04;97775.44;;;5.33;59.83
41044;BME280;51680;49.806;18.774;2023-04-28T02:53:06;97782.31;;;5.34;59.66
41044;BME280;51680;49.806;18.774;2023-04-28T02:56:09;97773.63;;;5.35;59.64
41044;BME280;51680;49.806;18.774;2023-04-28T02:59:11;97778.03;;;5.33;59.82
41044;BME280;51680;49.806;18.774;2023-04-28T03:02:13;97779.72;;;5.34;59.76
41044;BME280;51680;49.806;18.774;2023-04-28T03:05:15;97785.84;;;5.32;59.57
41044;BME280;51680;49.806;18.774;2023-04-28T03:08:17;97780.53;;;5.36;59.66
41044;BME280;51680;49.806;18.774;2023-04-28T03:11:21;97774.44;;;5.37;59.73
41044;BME280;51680;49.806;18.774;2023-04-28T03:14:23;97783.09;;;5.36;59.46
41044;BME280;51680;49.806;18.774;2023-04-28T03:17:25;97785.56;;;5.39;59.30
41044;BME280;51680;49.806;18.774;2023-04-28T03:20:27;97775.25;;;5.38;59.29
41044;BME280;51680;49.806;18.774;2023-04-28T03:23:29;97779.38;;;5.43;58.96
41044;BME280;51680;49.806;18.774;2023-04-28T03:26:32;97782.72;;;5.45;59.41
41044;BME280;51680;49.806;18.774;2023-04-28T03:29:34;97778.75;;;5.37;60.73
41044;BME280;51680;49.806;18.774;2023-04-28T03:32:36;97776.59;;;5.48;58.90
41044;BME280;51680;49.806;18.774;2023-04-28T03:35:38;97780.22;;;5.44;59.16
41044;BME280;51680;49.806;18.774;2023-04-28T03:38:40;97773.28;;;5.44;59.15
41044;BME280;51680;49.806;18.774;2023-04-28T03:41:43;97772.19;;;5.51;59.11
41044;BME280;51680;49.806;18.774;2023-04-28T03:45:04;97759.66;;;5.62;58.57
41044;BME280;51680;49.806;18.774;2023-04-28T03:48:06;97760.97;;;5.72;58.51
41044;BME280;51680;49.806;18.774;2023-04-28T03:51:08;97761.31;;;5.86;58.16
41044;BME280;51680;49.806;18.774;2023-04-28T03:54:09;97758.00;;;6.04;57.70
41044;BME280;51680;49.806;18.774;2023-04-28T03:57:12;97758.34;;;6.17;57.31
41044;BME280;51680;49.806;18.774;2023-04-28T04:00:14;97761.81;;;6.37;56.83
41044;BME280;51680;49.806;18.774;2023-04-28T04:03:16;97758.53;;;6.54;56.31
41044;BME280;51680;49.806;18.774;2023-04-28T04:06:21;97746.75;;;6.65;56.40
41044;BME280;51680;49.806;18.774;2023-04-28T04:09:23;97753.00;;;6.81;55.46
41044;BME280;51680;49.806;18.774;2023-04-28T04:12:26;97756.66;;;6.96;55.33
41044;BME280;51680;49.806;18.774;2023-04-28T04:15:28;97766.09;;;7.17;55.00
41044;BME280;51680;49.806;18.774;2023-04-28T04:18:30;97758.25;;;7.18;54.55
41044;BME280;51680;49.806;18.774;2023-04-28T04:21:50;97758.44;;;7.32;53.98
41044;BME280;51680;49.806;18.774;2023-04-28T04:24:52;97764.03;;;7.43;54.04
41044;BME280;51680;49.806;18.774;2023-04-28T04:27:57;97760.66;;;7.60;53.93
41044;BME280;51680;49.806;18.774;2023-04-28T04:30:59;97767.38;;;7.82;53.53
41044;BME280;51680;49.806;18.774;2023-04-28T04:34:03;97759.47;;;8.02;52.78
41044;BME280;51680;49.806;18.774;2023-04-28T04:37:05;97766.25;;;8.23;51.81
41044;BME280;51680;49.806;18.774;2023-04-28T04:40:09;97757.41;;;8.44;51.29
41044;BME280;51680;49.806;18.774;2023-04-28T04:43:20;97765.19;;;8.61;51.07
41044;BME280;51680;49.806;18.774;2023-04-28T04:46:24;97764.31;;;8.62;50.90
41044;BME280;51680;49.806;18.774;2023-04-28T04:49:26;97760.56;;;8.51;50.81
41044;BME280;51680;49.806;18.774;2023-04-28T04:52:29;97767.03;;;8.59;51.25
41044;BME280;51680;49.806;18.774;2023-04-28T04:55:49;97765.59;;;8.71;51.17
41044;BME280;51680;49.806;18.774;2023-04-28T04:58:52;97761.38;;;8.68;51.28
41044;BME280;51680;49.806;18.774;2023-04-28T05:02:13;97764.84;;;8.69;51.02
41044;BME280;51680;49.806;18.774;2023-04-28T05:05:15;97766.72;;;8.65;50.89
41044;BME280;51680;49.806;18.774;2023-04-28T05:08:17;97761.59;;;8.81;51.04
41044;BME280;51680;49.806;18.774;2023-04-28T05:11:19;97760.00;;;8.95;50.31
41044;BME280;51680;49.806;18.774;2023-04-28T05:14:22;97760.59;;;9.00;50.19
41044;BME280;51680;49.806;18.774;2023-04-28T05:17:25;97756.94;;;9.20;49.74
41044;BME280;51680;49.806;18.774;2023-04-28T05:20:27;97765.13;;;9.29;49.47
41044;BME280;51680;49.806;18.774;2023-04-28T05:23:29;97768.13;;;9.37;49.44
41044;BME280;51680;49.806;18.774;2023-04-28T05:26:31;97761.25;;;9.36;49.30
41044;BME280;51680;49.806;18.774;2023-04-28T05:29:40;97763.72;;;9.70;48.54
41044;BME280;51680;49.806;18.774;2023-04-28T05:32:44;97760.25;;;9.85;48.35
41044;BME280;51680;49.806;18.774;2023-04-28T05:35:45;97762.66;;;10.05;47.78
41044;BME280;51680;49.806;18.774;2023-04-28T05:38:48;97766.25;;;10.18;47.22
41044;BME280;51680;49.806;18.774;2023-04-28T05:41:50;97757.06;;;10.56;47.11
41044;BME280;51680;49.806;18.774;2023-04-28T05:44:53;97756.22;;;10.85;46.86
41044;BME280;51680;49.806;18.774;2023-04-28T05:47:55;97765.06;;;10.83;46.11
41044;BME280;51680;49.806;18.774;2023-04-28T05:50:57;97757.38;;;11.23;45.66
41044;BME280;51680;49.806;18.774;2023-04-28T05:54:00;97757.81;;;11.86;45.28
41044;BME280;51680;49.806;18.774;2023-04-28T05:57:04;97754.13;;;12.29;44.11
41044;BME280;51680;49.806;18.774;2023-04-28T06:00:08;97747.03;;;12.43;43.74
41044;BME280;51680;49.806;18.774;2023-04-28T06:03:13;97752.91;;;12.73;43.79
41044;BME280;51680;49.806;18.774;2023-04-28T06:06:19;97758.81;;;13.02;43.83
41044;BME280;51680;49.806;18.774;2023-04-28T06:09:21;97750.00;;;13.40;43.13
41044;BME280;51680;49.806;18.774;2023-04-28T06:12:23;97752.94;;;13.36;43.40
41044;BME280;51680;49.806;18.774;2023-04-28T06:15:27;97748.31;;;13.64;41.73
41044;BME280;51680;49.806;18.774;2023-04-28T06:18:28;97746.69;;;13.74;42.42
41044;BME280;51680;49.806;18.774;2023-04-28T06:21:34;97738.66;;;14.01;42.60
41044;BME280;51680;49.806;18.774;2023-04-28T06:24:36;97741.88;;;13.81;41.62
41044;BME280;51680;49.806;18.774;2023-04-28T06:27:43;97741.78;;;13.57;41.46
41044;BME280;51680;49.806;18.774;2023-04-28T06:30:46;97744.84;;;13.87;42.31
41044;BME280;51680;49.806;18.774;2023-04-28T06:33:48;97734.63;;;14.08;40.95
41044;BME280;51680;49.806;18.774;2023-04-28T06:36:50;97730.09;;;14.10;40.72
41044;BME280;51680;49.806;18.774;2023-04-28T06:39:51;97728.00;;;13.79;38.16
41044;BME280;51680;49.806;18.774;2023-04-28T06:42:53;97733.84;;;14.18;39.31
41044;BME280;51680;49.806;18.774;2023-04-28T06:46:04;97736.19;;;14.57;39.19
41044;BME280;51680;49.806;18.774;2023-04-28T06:49:06;97730.91;;;14.46;37.34
41044;BME280;51680;49.806;18.774;2023-04-28T06:52:08;97730.22;;;14.32;36.05
41044;BME280;51680;49.806;18.774;2023-04-28T06:55:13;97723.97;;;14.80;37.14
41044;BME280;51680;49.806;18.774;2023-04-28T06:58:16;97720.59;;;15.45;38.17
41044;BME280;51680;49.806;18.774;2023-04-28T07:01:19;97721.63;;;15.10;36.45
41044;BME280;51680;49.806;18.774;2023-04-28T07:04:48;97721.03;;;14.61;36.18
41044;BME280;51680;49.806;18.774;2023-04-28T07:07:51;97717.69;;;15.26;37.31
41044;BME280;51680;49.806;18.774;2023-04-28T07:11:11;97708.16;;;15.80;36.46
41044;BME280;51680;49.806;18.774;2023-04-28T07:14:13;97705.19;;;16.59;36.48
41044;BME280;51680;49.806;18.774;2023-04-28T07:17:16;97703.97;;;17.13;34.85
41044;BME280;51680;49.806;18.774;2023-04-28T07:20:18;97700.31;;;17.25;34.81
41044;BME280;51680;49.806;18.774;2023-04-28T07:23:20;97698.84;;;17.62;33.48
41044;BME280;51680;49.806;18.774;2023-04-28T07:26:21;97700.22;;;17.06;34.21
41044;BME280;51680;49.806;18.774;2023-04-28T07:29:23;97703.44;;;16.89;35.34
41044;BME280;51680;49.806;18.774;2023-04-28T07:32:29;97688.56;;;17.09;33.80
41044;BME280;51680;49.806;18.774;2023-04-28T07:35:31;97686.16;;;17.26;33.52
41044;BME280;51680;49.806;18.774;2023-04-28T07:38:33;97681.81;;;16.95;33.55
41044;BME280;51680;49.806;18.774;2023-04-28T07:41:35;97678.75;;;16.90;33.63
41044;BME280;51680;49.806;18.774;2023-04-28T07:44:38;97676.47;;;17.36;34.25
41044;BME280;51680;49.806;18.774;2023-04-28T07:47:41;97672.81;;;17.48;33.35
41044;BME280;51680;49.806;18.774;2023-04-28T07:50:43;97676.88;;;17.02;33.98
41044;BME280;51680;49.806;18.774;2023-04-28T07:53:44;97678.75;;;16.70;34.94
41044;BME280;51680;49.806;18.774;2023-04-28T07:56:46;97663.38;;;17.25;33.34
41044;BME280;51680;49.806;18.774;2023-04-28T07:59:48;97670.13;;;16.47;34.65
41044;BME280;51680;49.806;18.774;2023-04-28T08:02:51;97667.59;;;16.87;34.53
41044;BME280;51680;49.806;18.774;2023-04-28T08:05:53;97670.19;;;16.98;33.70
41044;BME280;51680;49.806;18.774;2023-04-28T08:08:55;97661.72;;;17.24;34.33
41044;BME280;51680;49.806;18.774;2023-04-28T08:11:56;97657.72;;;17.69;33.94
41044;BME280;51680;49.806;18.774;2023-04-28T08:15:00;97661.13;;;18.19;33.49
41044;BME280;51680;49.806;18.774;2023-04-28T08:18:03;97660.00;;;17.93;31.72
41044;BME280;51680;49.806;18.774;2023-04-28T08:21:05;97651.97;;;18.23;32.99
41044;BME280;51680;49.806;18.774;2023-04-28T08:24:06;97653.91;;;18.30;32.86
41044;BME280;51680;49.806;18.774;2023-04-28T08:27:10;97650.03;;;18.73;32.65
41044;BME280;51680;49.806;18.774;2023-04-28T08:30:12;97646.13;;;18.67;33.29
41044;BME280;51680;49.806;18.774;2023-04-28T08:33:15;97638.91;;;18.50;31.77
41044;BME280;51680;49.806;18.774;2023-04-28T08:36:17;97647.53;;;18.42;31.62
41044;BME280;51680;49.806;18.774;2023-04-28T08:39:19;97637.63;;;18.25;33.69
41044;BME280;51680;49.806;18.774;2023-04-28T08:42:42;97641.25;;;18.15;32.20
41044;BME280;51680;49.806;18.774;2023-04-28T08:45:45;97642.22;;;18.04;33.12
41044;BME280;51680;49.806;18.774;2023-04-28T08:48:49;97632.72;;;18.88;33.48
41044;BME280;51680;49.806;18.774;2023-04-28T08:51:55;97626.19;;;19.19;30.52
41044;BME280;51680;49.806;18.774;2023-04-28T08:55:01;97626.91;;;19.21;31.71
41044;BME280;51680;49.806;18.774;2023-04-28T08:58:07;97627.22;;;18.53;32.45
41044;BME280;51680;49.806;18.774;2023-04-28T09:01:09;97615.78;;;19.17;32.32
41044;BME280;51680;49.806;18.774;2023-04-28T09:04:12;97611.53;;;19.34;30.38
41044;BME280;51680;49.806;18.774;2023-04-28T09:07:14;97624.69;;;19.26;31.28
41044;BME280;51680;49.806;18.774;2023-04-28T09:10:17;97624.28;;;19.11;31.40
41044;BME280;51680;49.806;18.774;2023-04-28T09:13:24;97619.63;;;18.96;30.14
41044;BME280;51680;49.806;18.774;2023-04-28T09:16:38;97607.88;;;19.44;29.60
41044;BME280;51680;49.806;18.774;2023-04-28T09:19:42;97601.53;;;19.55;30.40
41044;BME280;51680;49.806;18.774;2023-04-28T09:22:43;97616.75;;;19.16;30.54
41044;BME280;51680;49.806;18.774;2023-04-28T09:25:56;97601.53;;;19.28;28.93
41044;BME280;51680;49.806;18.774;2023-04-28T09:29:10;97608.25;;;19.13;30.19
41044;BME280;51680;49.806;18.774;2023-04-28T09:32:14;97602.03;;;18.95;30.49
41044;BME280;51680;49.806;18.774;2023-04-28T09:35:37;97597.41;;;18.70;28.84
41044;BME280;51680;49.806;18.774;2023-04-28T09:38:42;97591.47;;;19.31;29.61
41044;BME280;51680;49.806;18.774;2023-04-28T09:41:44;97591.38;;;19.95;30.59
41044;BME280;51680;49.806;18.774;2023-04-28T09:44:52;97581.38;;;20.59;28.69
41044;BME280;51680;49.806;18.774;2023-04-28T09:48:07;97578.31;;;20.11;27.66
41044;BME280;51680;49.806;18.774;2023-04-28T09:51:11;97577.13;;;19.34;29.87
41044;BME280;51680;49.806;18.774;2023-04-28T09:54:21;97569.09;;;19.26;28.92
41044;BME280;51680;49.806;18.774;2023-04-28T09:57:24;97572.06;;;19.13;30.13
41044;BME280;51680;49.806;18.774;2023-04-28T10:00:26;97573.91;;;19.40;30.78
41044;BME280;51680;49.806;18.774;2023-04-28T10:03:29;97566.41;;;19.53;30.35
41044;BME280;51680;49.806;18.774;2023-04-28T10:06:34;97564.63;;;19.71;30.41
41044;BME280;51680;49.806;18.774;2023-04-28T10:09:37;97555.31;;;19.22;30.44
41044;BME280;51680;49.806;18.774;2023-04-28T10:12:39;97543.16;;;18.47;31.72
41044;BME280;51680;49.806;18.774;2023-04-28T10:15:41;97547.22;;;18.87;31.56
41044;BME280;51680;49.806;18.774;2023-04-28T10:18:43;97543.19;;;19.47;30.37
41044;BME280;51680;49.806;18.774;2023-04-28T10:21:55;97545.97;;;18.16;29.55
41044;BME280;51680;49.806;18.774;2023-04-28T10:25:15;97532.19;;;18.88;32.49
41044;BME280;51680;49.806;18.774;2023-04-28T10:28:22;97533.56;;;19.19;31.38
41044;BME280;51680;49.806;18.774;2023-04-28T10:31:24;97518.72;;;19.35;30.80
41044;BME280;51680;49.806;18.774;2023-04-28T10:34:25;97527.00;;;20.02;32.35
41044;BME280;51680;49.806;18.774;2023-04-28T10:38:02;97512.13;;;20.70;28.69
41044;BME280;51680;49.806;18.774;2023-04-28T10:41:30;97505.28;;;19.99;29.96
41044;BME280;51680;49.806;18.774;2023-04-28T10:44:42;97497.34;;;19.81;30.22
41044;BME280;51680;49.806;18.774;2023-04-28T10:47:59;97500.34;;;20.04;29.21
41044;BME280;51680;49.806;18.774;2023-04-28T10:51:36;97492.38;;;20.21;30.25
41044;BME280;51680;49.806;18.774;2023-04-28T10:54:39;97485.88;;;20.67;31.37
41044;BME280;51680;49.806;18.774;2023-04-28T10:57:41;97495.38;;;21.03;30.32
41044;BME280;51680;49.806;18.774;2023-04-28T11:00:43;97483.69;;;20.88;30.74
41044;BME280;51680;49.806;18.774;2023-04-28T11:03:48;97482.75;;;20.97;31.07
41044;BME280;51680;49.806;18.774;2023-04-28T11:07:10;97477.31;;;20.73;27.59
41044;BME280;51680;49.806;18.774;2023-04-28T11:10:14;97474.81;;;20.71;30.52
41044;BME280;51680;49.806;18.774;2023-04-28T11:13:25;97475.59;;;20.97;30.44
41044;BME280;51680;49.806;18.774;2023-04-28T11:16:27;97468.13;;;19.73;30.36
41044;BME280;51680;49.806;18.774;2023-04-28T11:19:30;97465.63;;;19.72;32.14
41044;BME280;51680;49.806;18.774;2023-04-28T11:22:32;97467.09;;;19.22;31.15
41044;BME280;51680;49.806;18.774;2023-04-28T11:25:56;97461.03;;;19.12;31.53
41044;BME280;51680;49.806;18.774;2023-04-28T11:28:58;97461.53;;;19.25;31.68
41044;BME280;51680;49.806;18.774;2023-04-28T11:32:00;97456.50;;;19.22;31.64
41044;BME280;51680;49.806;18.774;2023-04-28T11:35:03;97446.47;;;19.43;31.61
41044;BME280;51680;49.806;18.774;2023-04-28T11:38:08;97453.31;;;19.63;32.11
41044;BME280;51680;49.806;18.774;2023-04-28T11:41:11;97447.19;;;20.05;31.89
41044;BME280;51680;49.806;18.774;2023-04-28T11:44:15;97446.09;;;20.41;31.97
41044;BME280;51680;49.806;18.774;2023-04-28T11:47:27;97447.13;;;20.74;30.17
41044;BME280;51680;49.806;18.774;2023-04-28T11:50:35;97452.88;;;20.95;30.44
41044;BME280;51680;49.806;18.774;2023-04-28T11:53:41;97448.25;;;21.05;30.22
41044;BME280;51680;49.806;18.774;2023-04-28T11:56:44;97449.22;;;20.96;29.64
41044;BME280;51680;49.806;18.774;2023-04-28T11:59:46;97440.13;;;20.65;30.58
41044;BME280;51680;49.806;18.774;2023-04-28T12:02:47;97438.31;;;20.73;30.65
41044;BME280;51680;49.806;18.774;2023-04-28T12:05:50;97431.50;;;21.04;30.50
41044;BME280;51680;49.806;18.774;2023-04-28T12:08:51;97422.06;;;21.18;30.86
41044;BME280;51680;49.806;18.774;2023-04-28T12:11:56;97418.69;;;21.00;29.12
41044;BME280;51680;49.806;18.774;2023-04-28T12:14:59;97417.63;;;20.85;30.43
41044;BME280;51680;49.806;18.774;2023-04-28T12:18:08;97411.22;;;20.62;28.87
41044;BME280;51680;49.806;18.774;2023-04-28T12:21:19;97399.19;;;20.75;29.43
41044;BME280;51680;49.806;18.774;2023-04-28T12:24:22;97399.63;;;20.63;30.28
41044;BME280;51680;49.806;18.774;2023-04-28T12:27:26;97401.31;;;20.64;30.54
41044;BME280;51680;49.806;18.774;2023-04-28T12:30:31;97396.22;;;20.78;31.07
41044;BME280;51680;49.806;18.774;2023-04-28T12:33:33;97392.59;;;20.87;30.28
41044;BME280;51680;49.806;18.774;2023-04-28T12:36:37;97385.28;;;20.89;30.50
41044;BME280;51680;49.806;18.774;2023-04-28T12:39:39;97381.22;;;21.03;30.37
41044;BME280;51680;49.806;18.774;2023-04-28T12:42:43;97375.88;;;20.95;31.21
41044;BME280;51680;49.806;18.774;2023-04-28T12:45:44;97380.16;;;20.88;30.63
41044;BME280;51680;49.806;18.774;2023-04-28T12:48:47;97378.13;;;20.74;30.57
41044;BME280;51680;49.806;18.774;2023-04-28T12:51:48;97369.00;;;20.76;30.71
41044;BME280;51680;49.806;18.774;2023-04-28T12:54:50;97369.81;;;20.77;31.98
41044;BME280;51680;49.806;18.774;2023-04-28T12:57:53;97367.91;;;20.95;31.53
41044;BME280;51680;49.806;18.774;2023-04-28T13:00:55;97359.56;;;20.74;30.95
41044;BME280;51680;49.806;18.774;2023-04-28T13:03:57;97362.06;;;20.42;30.88
41044;BME280;51680;49.806;18.774;2023-04-28T13:06:59;97343.56;;;20.50;31.33
41044;BME280;51680;49.806;18.774;2023-04-28T13:10:01;97357.00;;;20.56;31.57
41044;BME280;51680;49.806;18.774;2023-04-28T13:13:04;97347.41;;;20.22;30.52
41044;BME280;51680;49.806;18.774;2023-04-28T13:16:06;97337.75;;;20.13;31.60
41044;BME280;51680;49.806;18.774;2023-04-28T13:19:08;97338.00;;;20.27;31.42
41044;BME280;51680;49.806;18.774;2023-04-28T13:22:13;97338.50;;;20.39;31.45
41044;BME280;51680;49.806;18.774;2023-04-28T13:25:15;97340.09;;;20.24;31.19
41044;BME280;51680;49.806;18.774;2023-04-28T13:28:18;97333.66;;;20.26;31.83
41044;BME280;51680;49.806;18.774;2023-04-28T13:31:20;97332.59;;;20.11;31.65
41044;BME280;51680;49.806;18.774;2023-04-28T13:34:22;97333.16;;;19.72;32.07
41044;BME280;51680;49.806;18.774;2023-04-28T13:37:23;97329.75;;;19.54;32.43
41044;BME280;51680;49.806;18.774;2023-04-28T13:40:25;97320.66;;;19.56;31.95
41044;BME280;51680;49.806;18.774;2023-04-28T13:43:28;97315.59;;;19.71;32.32
41044;BME280;51680;49.806;18.774;2023-04-28T13:46:30;97317.31;;;19.80;32.10
41044;BME280;51680;49.806;18.774;2023-04-28T13:49:32;97316.59;;;19.70;31.14
41044;BME280;51680;49.806;18.774;2023-04-28T13:52:34;97307.38;;;19.82;31.72
41044;BME280;51680;49.806;18.774;2023-04-28T13:55:37;97311.78;;;19.99;31.85
41044;BME280;51680;49.806;18.774;2023-04-28T13:58:40;97307.94;;;20.11;32.16
41044;BME280;51680;49.806;18.774;2023-04-28T14:01:42;97304.66;;;20.25;31.60
41044;BME280;51680;49.806;18.774;2023-04-28T14:04:44;97306.13;;;19.94;31.55
41044;BME280;51680;49.806;18.774;2023-04-28T14:07:48;97293.97;;;19.58;30.95
41044;BME280;51680;49.806;18.774;2023-04-28T14:10:50;97285.75;;;19.61;32.38
41044;BME280;51680;49.806;18.774;2023-04-28T14:13:53;97298.06;;;19.27;31.50
41044;BME280;51680;49.806;18.774;2023-04-28T14:16:55;97299.38;;;18.88;32.97
41044;BME280;51680;49.806;18.774;2023-04-28T14:20:02;97299.41;;;18.78;31.96
41044;BME280;51680;49.806;18.774;2023-04-28T14:23:04;97300.72;;;18.92;33.05
41044;BME280;51680;49.806;18.774;2023-04-28T14:26:06;97283.94;;;19.01;32.80
41044;BME280;51680;49.806;18.774;2023-04-28T14:29:09;97273.75;;;19.23;32.61
41044;BME280;51680;49.806;18.774;2023-04-28T14:32:11;97279.75;;;19.33;32.91
41044;BME280;51680;49.806;18.774;2023-04-28T14:35:14;97282.41;;;19.33;33.32
41044;BME280;51680;49.806;18.774;2023-04-28T14:38:16;97280.13;;;19.21;33.49
41044;BME280;51680;49.806;18.774;2023-04-28T14:41:18;97278.03;;;19.07;33.09
41044;BME280;51680;49.806;18.774;2023-04-28T14:44:21;97277.34;;;19.05;33.55
41044;BME280;51680;49.806;18.774;2023-04-28T14:47:23;97272.66;;;18.99;33.14
41044;BME280;51680;49.806;18.774;2023-04-28T14:50:26;97276.66;;;19.03;33.50
41044;BME280;51680;49.806;18.774;2023-04-28T14:53:27;97276.66;;;19.03;33.36
41044;BME280;51680;49.806;18.774;2023-04-28T14:56:29;97275.03;;;19.02;33.55
41044;BME280;51680;49.806;18.774;2023-04-28T14:59:32;97281.19;;;19.10;32.85
41044;BME280;51680;49.806;18.774;2023-04-28T15:02:35;97275.84;;;19.02;32.79
41044;BME280;51680;49.806;18.774;2023-04-28T15:05:36;97286.13;;;19.05;32.80
41044;BME280;51680;49.806;18.774;2023-04-28T15:08:38;97273.75;;;19.23;33.42
41044;BME280;51680;49.806;18.774;2023-04-28T15:11:40;97269.31;;;19.32;32.83
41044;BME280;51680;49.806;18.774;2023-04-28T15:14:43;97270.63;;;19.28;33.28
41044;BME280;51680;49.806;18.774;2023-04-28T15:17:45;97269.41;;;19.05;33.32
41044;BME280;51680;49.806;18.774;2023-04-28T15:20:47;97270.47;;;19.12;34.35
41044;BME280;51680;49.806;18.774;2023-04-28T15:23:49;97273.19;;;18.85;34.21
41044;BME280;51680;49.806;18.774;2023-04-28T15:26:50;97266.88;;;18.78;34.39
41044;BME280;51680;49.806;18.774;2023-04-28T15:29:54;97261.41;;;18.97;34.92
41044;BME280;51680;49.806;18.774;2023-04-28T15:32:56;97255.66;;;18.84;35.11
41044;BME280;51680;49.806;18.774;2023-04-28T15:35:58;97253.41;;;18.89;35.36
41044;BME280;51680;49.806;18.774;2023-04-28T15:39:00;97254.00;;;18.83;35.05
41044;BME280;51680;49.806;18.774;2023-04-28T15:42:02;97254.78;;;18.58;34.99
41044;BME280;51680;49.806;18.774;2023-04-28T15:45:07;97261.84;;;18.40;35.25
41044;BME280;51680;49.806;18.774;2023-04-28T15:48:09;97259.09;;;18.31;35.44
41044;BME280;51680;49.806;18.774;2023-04-28T15:51:11;97248.81;;;18.28;35.54
41044;BME280;51680;49.806;18.774;2023-04-28T15:54:13;97253.47;;;18.17;36.26
41044;BME280;51680;49.806;18.774;2023-04-28T15:57:14;97252.13;;;18.13;36.15
41044;BME280;51680;49.806;18.774;2023-04-28T16:00:18;97251.97;;;18.14;36.64
41044;BME280;51680;49.806;18.774;2023-04-28T16:03:19;97255.25;;;17.99;36.75
41044;BME280;51680;49.806;18.774;2023-04-28T16:06:21;97262.31;;;17.98;36.39